Time;durP1;ratioP1;P1;durP2;ratioP2;P2;SDS_P1;SDS_P2;PMS_P1;PMS_P2;Temp;Humidity;BMP_temperature;BMP_pressure;BME280_temperature;BME280_humidity;BME280_pressure;Samples;Min_cycle;Max_cycle;Signal;HPM_P1;HPM_P2
2023/09/30 04:41:15;;;;;;;0.70;0.70;;;;;;;;;;5067595;28;20395;-80
2023/09/30 04:43:41;;;;;;;1.48;0.80;;;;;;;;;;5043503;28;20409;-81
2023/09/30 04:46:09;;;;;;;1.15;1.10;;;;;;;;;;5045502;28;20031;-81
2023/09/30 04:48:34;;;;;;;2.05;1.17;;;;;;;;;;5048010;28;20057;-81
2023/09/30 04:51:00;;;;;;;1.45;0.93;;;;;;;;;;5058187;28;20068;-81
2023/09/30 04:53:26;;;;;;;6.68;2.03;;;;;;;;;;5055943;28;20028;-81
2023/09/30 04:55:51;;;;;;;1.92;1.05;;;;;;;;;;5056663;28;20027;-80
2023/09/30 04:58:18;;;;;;;2.05;1.33;;;;;;;;;;5046519;28;20051;-80
2023/09/30 05:00:43;;;;;;;1.10;0.93;;;;;;;;;;5050344;28;20462;-81
2023/09/30 05:03:08;;;;;;;4.05;2.03;;;;;;;;;;5046932;28;20029;-81
2023/09/30 05:05:37;;;;;;;6.28;2.08;;;;;;;;;;5051129;28;20033;-80
2023/09/30 05:08:02;;;;;;;1.48;1.05;;;;;;;;;;5049892;28;20029;-81
2023/09/30 05:10:28;;;;;;;3.92;1.17;;;;;;;;;;5051363;28;20024;-81
2023/09/30 05:12:55;;;;;;;1.23;1.10;;;;;;;;;;5049434;28;20035;-80
2023/09/30 05:15:21;;;;;;;2.50;1.42;;;;;;;;;;5053691;28;20428;-81
2023/09/30 05:17:47;;;;;;;2.83;1.42;;;;;;;;;;5047080;28;20064;-79
2023/09/30 05:20:14;;;;;;;1.50;1.10;;;;;;;;;;5050980;28;20037;-78
2023/09/30 05:22:45;;;;;;;2.47;2.05;;;;;;;;;;5051090;28;20112;-78
2023/09/30 05:25:11;;;;;;;1.90;1.50;;;;;;;;;;5056302;28;20025;-79
2023/09/30 05:27:37;;;;;;;5.95;1.63;;;;;;;;;;5048488;28;20108;-78
2023/09/30 05:30:04;;;;;;;0.60;0.60;;;;;;;;;;5050533;28;20025;-78
2023/09/30 05:32:31;;;;;;;3.80;1.70;;;;;;;;;;5050249;28;20040;-78
2023/09/30 05:35:02;;;;;;;3.28;1.52;;;;;;;;;;5052527;28;20023;-78
2023/09/30 05:37:28;;;;;;;1.85;1.38;;;;;;;;;;5059678;28;20051;-78
2023/09/30 05:39:53;;;;;;;1.00;0.90;;;;;;;;;;5054311;28;20599;-78
2023/09/30 05:42:22;;;;;;;1.90;1.73;;;;;;;;;;5055629;28;20025;-78
2023/09/30 05:44:48;;;;;;;3.05;1.30;;;;;;;;;;5057677;28;20032;-78
2023/09/30 05:47:15;;;;;;;1.30;1.15;;;;;;;;;;5051649;28;20469;-78
2023/09/30 05:49:41;;;;;;;2.33;1.75;;;;;;;;;;5046424;28;20105;-79
2023/09/30 05:52:06;;;;;;;2.50;1.70;;;;;;;;;;5037127;28;20051;-78
2023/09/30 05:54:32;;;;;;;3.53;1.20;;;;;;;;;;5035612;28;20025;-78
2023/09/30 05:56:58;;;;;;;1.83;0.98;;;;;;;;;;5039341;28;20462;-79
2023/09/30 05:59:25;;;;;;;4.63;2.55;;;;;;;;;;5040170;28;20473;-78
2023/09/30 06:01:53;;;;;;;2.22;1.40;;;;;;;;;;5037435;28;20114;-79
2023/09/30 06:04:19;;;;;;;2.60;1.40;;;;;;;;;;5037548;28;20024;-79
2023/09/30 06:06:45;;;;;;;2.20;1.67;;;;;;;;;;5044670;28;20433;-79
2023/09/30 06:09:11;;;;;;;2.38;1.35;;;;;;;;;;5038444;28;20031;-82
2023/09/30 06:11:36;;;;;;;1.40;1.20;;;;;;;;;;5036450;28;20043;-79
2023/09/30 06:14:02;;;;;;;9.45;2.03;;;;;;;;;;5042938;28;20024;-79
2023/09/30 06:16:28;;;;;;;1.52;1.10;;;;;;;;;;5030668;28;20029;-79
2023/09/30 06:18:54;;;;;;;1.83;1.20;;;;;;;;;;5030250;28;20442;-80
2023/09/30 06:21:24;;;;;;;1.50;1.30;;;;;;;;;;5033904;28;20078;-79
2023/09/30 06:23:51;;;;;;;1.98;1.67;;;;;;;;;;5032622;28;20043;-79
2023/09/30 06:26:18;;;;;;;1.80;1.35;;;;;;;;;;5035895;28;20026;-79
2023/09/30 06:28:44;;;;;;;1.85;1.23;;;;;;;;;;5036456;28;20048;-79
2023/09/30 06:31:10;;;;;;;0.73;0.73;;;;;;;;;;5034445;28;20044;-79
2023/09/30 06:33:38;;;;;;;1.27;1.13;;;;;;;;;;5033374;28;20386;-79
2023/09/30 06:36:13;;;;;;;2.75;1.92;;;;;;;;;;5028887;28;20030;-80
2023/09/30 06:38:39;;;;;;;2.63;1.60;;;;;;;;;;5042146;28;20028;-80
2023/09/30 06:41:05;;;;;;;1.90;1.45;;;;;;;;;;5032904;28;20669;-79
2023/09/30 06:43:31;;;;;;;1.90;1.42;;;;;;;;;;5032185;28;20037;-79
2023/09/30 06:45:57;;;;;;;5.75;2.80;;;;;;;;;;5032484;28;20028;-79
2023/09/30 06:48:22;;;;;;;2.67;1.90;;;;;;;;;;5028655;28;20104;-79
2023/09/30 06:50:49;;;;;;;2.47;1.20;;;;;;;;;;5033445;28;20052;-80
2023/09/30 06:53:19;;;;;;;1.83;1.50;;;;;;;;;;5030738;28;20523;-80
2023/09/30 06:55:45;;;;;;;2.22;1.67;;;;;;;;;;5027067;28;20045;-82
2023/09/30 06:58:10;;;;;;;1.77;1.40;;;;;;;;;;5039890;28;20067;-83
2023/09/30 07:00:44;;;;;;;3.72;2.05;;;;;;;;;;5035900;28;20120;-82
2023/09/30 07:03:09;;;;;;;2.95;1.67;;;;;;;;;;5036385;28;20029;-82
2023/09/30 07:05:39;;;;;;;5.78;1.83;;;;;;;;;;5038057;28;20392;-82
2023/09/30 07:08:05;;;;;;;2.20;1.67;;;;;;;;;;5039868;28;20040;-81
2023/09/30 07:10:31;;;;;;;3.80;2.55;;;;;;;;;;5041589;28;20021;-83
2023/09/30 07:12:56;;;;;;;3.25;2.08;;;;;;;;;;5036829;28;20021;-82
2023/09/30 07:15:22;;;;;;;2.60;2.35;;;;;;;;;;5040614;28;20147;-82
2023/09/30 07:17:47;;;;;;;2.58;1.63;;;;;;;;;;5036038;28;20053;-83
2023/09/30 07:20:14;;;;;;;1.88;1.50;;;;;;;;;;5036506;28;20426;-83
2023/09/30 07:22:39;;;;;;;1.45;0.85;;;;;;;;;;5037609;28;20032;-82
2023/09/30 07:25:05;;;;;;;1.77;0.85;;;;;;;;;;5043067;28;20072;-82
2023/09/30 07:27:31;;;;;;;1.73;1.20;;;;;;;;;;5039659;28;20032;-81
2023/09/30 07:29:57;;;;;;;1.55;0.98;;;;;;;;;;5043196;28;20025;-82
2023/09/30 07:32:23;;;;;;;6.93;1.50;;;;;;;;;;5039473;28;20118;-83
2023/09/30 07:34:49;;;;;;;2.78;1.67;;;;;;;;;;5042803;28;20021;-81
2023/09/30 07:37:17;;;;;;;1.90;0.90;;;;;;;;;;5041428;28;20055;-82
2023/09/30 07:39:42;;;;;;;1.70;1.15;;;;;;;;;;5033966;28;20041;-82
2023/09/30 07:42:11;;;;;;;1.95;1.48;;;;;;;;;;5039620;28;20025;-82
2023/09/30 07:44:42;;;;;;;2.22;1.27;;;;;;;;;;5034614;28;20025;-82
2023/09/30 07:47:08;;;;;;;4.70;1.92;;;;;;;;;;5043492;28;20037;-81
2023/09/30 07:49:34;;;;;;;6.63;2.20;;;;;;;;;;5039615;28;20033;-81
2023/09/30 07:52:00;;;;;;;2.80;1.77;;;;;;;;;;5038688;28;20026;-82
2023/09/30 07:54:26;;;;;;;3.65;1.92;;;;;;;;;;5032309;28;20033;-82
2023/09/30 07:56:52;;;;;;;2.38;1.42;;;;;;;;;;5033043;28;20680;-81
2023/09/30 07:59:17;;;;;;;3.88;2.58;;;;;;;;;;5029467;28;20485;-81
2023/09/30 08:01:47;;;;;;;2.88;1.75;;;;;;;;;;5031406;28;20094;-80
2023/09/30 08:04:13;;;;;;;1.85;1.27;;;;;;;;;;5034453;28;20469;-82
2023/09/30 08:06:39;;;;;;;1.88;1.10;;;;;;;;;;5033388;28;20035;-81
2023/09/30 08:09:09;;;;;;;2.28;1.58;;;;;;;;;;5034009;28;20377;-82
2023/09/30 08:11:38;;;;;;;3.00;1.67;;;;;;;;;;5038047;28;20061;-82
2023/09/30 08:14:06;;;;;;;3.35;1.98;;;;;;;;;;5039987;28;20115;-81
2023/09/30 08:16:33;;;;;;;4.50;2.28;;;;;;;;;;5040487;28;20108;-82
2023/09/30 08:18:58;;;;;;;2.88;1.88;;;;;;;;;;5039947;28;20025;-82
2023/09/30 08:21:24;;;;;;;3.50;2.10;;;;;;;;;;5041251;28;20029;-80
2023/09/30 08:23:49;;;;;;;2.83;2.20;;;;;;;;;;5035134;28;20025;-81
2023/09/30 08:26:14;;;;;;;3.60;2.92;;;;;;;;;;5042170;28;20470;-80
2023/09/30 08:28:40;;;;;;;3.10;2.47;;;;;;;;;;5033263;28;20477;-80
2023/09/30 08:31:05;;;;;;;22.20;3.05;;;;;;;;;;5032909;28;20029;-81
2023/09/30 08:33:32;;;;;;;3.63;2.30;;;;;;;;;;5031068;28;20096;-82
2023/09/30 08:36:07;;;;;;;8.07;3.22;;;;;;;;;;5032630;28;20029;-81
2023/09/30 08:38:34;;;;;;;3.10;2.55;;;;;;;;;;5038485;28;20068;-82
2023/09/30 08:41:00;;;;;;;7.80;2.60;;;;;;;;;;5032033;28;20231;-82
2023/09/30 08:43:30;;;;;;;3.30;2.08;;;;;;;;;;5038881;28;20104;-81
2023/09/30 08:45:56;;;;;;;6.40;1.63;;;;;;;;;;5031681;28;20564;-81
2023/09/30 08:48:26;;;;;;;2.20;1.73;;;;;;;;;;5034573;28;20037;-82
2023/09/30 08:50:53;;;;;;;5.80;2.70;;;;;;;;;;5031063;28;20026;-81
2023/09/30 08:53:19;;;;;;;3.78;2.38;;;;;;;;;;5031843;28;20033;-83
2023/09/30 08:55:46;;;;;;;3.28;2.00;;;;;;;;;;5033152;28;20540;-80
2023/09/30 08:58:15;;;;;;;5.25;1.92;;;;;;;;;;5031073;28;20037;-80
2023/09/30 09:00:40;;;;;;;2.90;1.87;;;;;;;;;;5040237;28;20040;-80
2023/09/30 09:03:07;;;;;;;3.88;2.35;;;;;;;;;;5043051;28;20610;-81
2023/09/30 09:05:33;;;;;;;2.35;1.70;;;;;;;;;;5032723;28;20029;-80
2023/09/30 09:07:58;;;;;;;2.40;1.52;;;;;;;;;;5044554;28;20037;-82
2023/09/30 09:10:24;;;;;;;3.08;1.75;;;;;;;;;;5034624;28;20516;-82
2023/09/30 09:12:58;;;;;;;3.30;1.80;;;;;;;;;;5041034;28;20111;-82
2023/09/30 09:15:26;;;;;;;3.00;1.92;;;;;;;;;;5032223;28;20412;-79
2023/09/30 09:17:52;;;;;;;1.92;1.58;;;;;;;;;;5033252;28;20047;-79
2023/09/30 09:20:22;;;;;;;2.40;1.73;;;;;;;;;;5045736;28;20358;-80
2023/09/30 09:22:53;;;;;;;3.28;2.22;;;;;;;;;;5033218;28;20042;-80
2023/09/30 09:25:19;;;;;;;3.72;2.65;;;;;;;;;;5035700;28;20104;-81
2023/09/30 09:27:45;;;;;;;2.95;1.95;;;;;;;;;;5034310;28;20025;-84
2023/09/30 09:30:23;;;;;;;3.38;2.50;;;;;;;;;;5044411;28;20108;-84
2023/09/30 09:32:53;;;;;;;2.58;1.50;;;;;;;;;;5042790;28;20017;-84
2023/09/30 09:35:22;;;;;;;5.30;2.15;;;;;;;;;;5039716;28;20040;-85
2023/09/30 09:37:59;;;;;;;3.80;1.83;;;;;;;;;;5037975;28;20164;-83
2023/09/30 09:40:28;;;;;;;2.00;1.80;;;;;;;;;;5045514;28;20293;-82
2023/09/30 09:42:55;;;;;;;1.95;1.67;;;;;;;;;;5044013;28;20587;-81
2023/09/30 09:45:25;;;;;;;2.42;1.80;;;;;;;;;;5041599;28;20333;-82
2023/09/30 09:47:53;;;;;;;3.15;1.55;;;;;;;;;;5034767;28;20029;-82
2023/09/30 09:50:20;;;;;;;6.03;1.88;;;;;;;;;;5044636;28;20026;-82
2023/09/30 09:52:50;;;;;;;3.20;2.05;;;;;;;;;;5044157;28;20055;-82
2023/09/30 09:55:20;;;;;;;2.33;1.80;;;;;;;;;;5033144;28;20028;-82
2023/09/30 09:57:46;;;;;;;2.40;1.77;;;;;;;;;;5041368;28;20555;-80
2023/09/30 10:00:15;;;;;;;2.15;1.75;;;;;;;;;;5045529;28;20044;-80
2023/09/30 10:02:41;;;;;;;1.95;1.48;;;;;;;;;;5037221;28;20033;-85
2023/09/30 10:05:08;;;;;;;1.75;1.40;;;;;;;;;;5045583;28;20044;-83
2023/09/30 10:07:37;;;;;;;2.42;2.05;;;;;;;;;;5040569;28;20040;-84
2023/09/30 10:10:06;;;;;;;2.10;1.35;;;;;;;;;;5035258;28;20055;-82
2023/09/30 10:12:41;;;;;;;2.92;1.70;;;;;;;;;;5040570;28;20393;-81
2023/09/30 10:15:24;;;;;;;2.42;1.45;;;;;;;;;;5036386;28;20033;-82
2023/09/30 10:18:04;;;;;;;3.60;1.15;;;;;;;;;;5042564;28;20066;-82
2023/09/30 10:20:31;;;;;;;1.92;1.30;;;;;;;;;;5035875;28;20029;-83
2023/09/30 10:23:21;;;;;;;1.13;0.95;;;;;;;;;;5039604;28;20032;-81
2023/09/30 10:25:49;;;;;;;2.80;1.52;;;;;;;;;;5040172;28;20020;-84
2023/09/30 10:28:50;;;;;;;1.50;1.00;;;;;;;;;;5038188;28;20029;-84
2023/09/30 10:31:19;;;;;;;1.75;1.38;;;;;;;;;;5035495;28;20510;-82
2023/09/30 10:34:02;;;;;;;5.43;1.63;;;;;;;;;;5043489;28;20040;-84
2023/09/30 10:36:39;;;;;;;2.47;1.35;;;;;;;;;;5041163;28;20022;-81
2023/09/30 10:39:12;;;;;;;1.50;1.38;;;;;;;;;;5038770;28;20038;-82
2023/09/30 10:41:41;;;;;;;3.03;1.65;;;;;;;;;;5040717;28;20040;-83
2023/09/30 10:44:22;;;;;;;2.67;1.77;;;;;;;;;;5042945;28;20021;-83
2023/09/30 10:46:48;;;;;;;1.35;0.80;;;;;;;;;;5041292;28;20029;-83
2023/09/30 10:49:31;;;;;;;2.53;1.20;;;;;;;;;;5039072;28;20025;-82
2023/09/30 10:51:59;;;;;;;2.15;1.20;;;;;;;;;;5035032;28;20085;-82
2023/09/30 10:54:27;;;;;;;2.05;1.48;;;;;;;;;;5041700;28;20100;-81
2023/09/30 10:56:53;;;;;;;0.70;0.68;;;;;;;;;;5035668;28;20033;-81
2023/09/30 10:59:23;;;;;;;2.53;1.27;;;;;;;;;;5043769;28;20032;-82
2023/09/30 11:01:49;;;;;;;1.95;1.40;;;;;;;;;;5040787;28;20021;-81
2023/09/30 11:04:15;;;;;;;2.30;1.25;;;;;;;;;;5038025;28;20030;-82
2023/09/30 11:06:42;;;;;;;1.65;0.95;;;;;;;;;;5039085;28;20029;-82
2023/09/30 11:09:13;;;;;;;1.95;1.30;;;;;;;;;;5033973;28;20032;-83
2023/09/30 11:11:43;;;;;;;6.22;1.00;;;;;;;;;;5039944;28;20431;-83
2023/09/30 11:14:30;;;;;;;1.80;1.02;;;;;;;;;;5034700;28;20032;-85
2023/09/30 11:17:02;;;;;;;1.55;1.40;;;;;;;;;;5040079;28;20026;-81
2023/09/30 11:19:36;;;;;;;1.40;1.00;;;;;;;;;;5039771;28;20477;-82
2023/09/30 11:22:02;;;;;;;2.63;1.27;;;;;;;;;;5041550;28;20052;-83
2023/09/30 11:24:29;;;;;;;1.50;1.17;;;;;;;;;;5040200;28;20453;-80
2023/09/30 11:26:57;;;;;;;7.32;1.73;;;;;;;;;;5043036;28;20070;-84
2023/09/30 11:29:23;;;;;;;0.90;0.75;;;;;;;;;;5038955;28;20115;-84
2023/09/30 11:31:50;;;;;;;4.00;1.20;;;;;;;;;;5038368;28;20112;-82
2023/09/30 11:34:16;;;;;;;1.08;0.98;;;;;;;;;;5043018;28;20036;-82
2023/09/30 11:36:50;;;;;;;0.90;0.80;;;;;;;;;;5039655;28;20033;-82
2023/09/30 11:39:23;;;;;;;1.17;0.80;;;;;;;;;;5042394;28;20163;-82
2023/09/30 11:41:49;;;;;;;1.15;1.05;;;;;;;;;;5037677;28;20021;-82
2023/09/30 11:44:16;;;;;;;1.00;0.90;;;;;;;;;;5037921;28;20021;-82
2023/09/30 11:46:55;;;;;;;1.63;1.10;;;;;;;;;;5033650;28;20040;-82
2023/09/30 11:49:53;;;;;;;2.00;1.10;;;;;;;;;;5035326;28;20032;-82
2023/09/30 11:52:26;;;;;;;2.63;1.65;;;;;;;;;;5034209;28;20091;-83
2023/09/30 11:54:52;;;;;;;1.38;1.13;;;;;;;;;;5038958;28;20385;-83
2023/09/30 11:57:18;;;;;;;2.42;1.48;;;;;;;;;;5035727;28;20033;-83
2023/09/30 11:59:45;;;;;;;4.03;1.48;;;;;;;;;;5033851;28;20044;-83
2023/09/30 12:02:11;;;;;;;2.22;1.20;;;;;;;;;;5037426;28;20021;-82
2023/09/30 12:04:37;;;;;;;2.35;1.60;;;;;;;;;;5036575;28;20516;-82
2023/09/30 12:07:03;;;;;;;0.95;0.85;;;;;;;;;;5039507;28;20950;-83
2023/09/30 12:09:30;;;;;;;1.77;1.17;;;;;;;;;;5041494;28;20114;-81
2023/09/30 12:11:57;;;;;;;1.17;1.08;;;;;;;;;;5044619;28;20021;-82
2023/09/30 12:14:23;;;;;;;2.15;1.50;;;;;;;;;;5040502;28;20029;-83
2023/09/30 12:16:49;;;;;;;1.90;1.33;;;;;;;;;;5047169;28;20035;-83
2023/09/30 12:19:15;;;;;;;2.60;1.23;;;;;;;;;;5039626;28;20030;-82
2023/09/30 12:21:41;;;;;;;1.75;1.30;;;;;;;;;;5039406;28;20025;-83
2023/09/30 12:24:09;;;;;;;0.77;0.57;;;;;;;;;;5035366;28;20036;-82
2023/09/30 12:26:34;;;;;;;2.13;1.25;;;;;;;;;;5030331;28;20027;-81
2023/09/30 12:29:00;;;;;;;2.30;1.35;;;;;;;;;;5035610;28;20111;-82
2023/09/30 12:31:25;;;;;;;1.50;1.17;;;;;;;;;;5041129;28;20485;-83
2023/09/30 12:33:52;;;;;;;1.17;1.00;;;;;;;;;;5039513;28;20021;-83
2023/09/30 12:36:21;;;;;;;2.03;1.75;;;;;;;;;;5032017;28;20845;-83
2023/09/30 12:38:47;;;;;;;1.40;1.23;;;;;;;;;;5036823;28;20446;-82
2023/09/30 12:41:13;;;;;;;2.03;1.20;;;;;;;;;;5039219;28;20065;-83
2023/09/30 12:43:41;;;;;;;1.98;1.23;;;;;;;;;;5042060;28;20049;-84
2023/09/30 12:46:08;;;;;;;2.95;1.40;;;;;;;;;;5036438;28;20077;-83
2023/09/30 12:48:34;;;;;;;2.08;1.20;;;;;;;;;;5038747;28;20388;-82
2023/09/30 12:50:59;;;;;;;1.60;1.30;;;;;;;;;;5039503;28;20044;-82
2023/09/30 12:53:25;;;;;;;2.15;1.10;;;;;;;;;;5037319;28;20029;-81
2023/09/30 12:55:52;;;;;;;1.42;1.25;;;;;;;;;;5037172;28;20029;-81
2023/09/30 12:58:18;;;;;;;2.85;1.42;;;;;;;;;;5035660;28;20063;-82
2023/09/30 13:00:43;;;;;;;2.50;1.05;;;;;;;;;;5043540;28;20024;-81
2023/09/30 13:03:09;;;;;;;2.10;0.90;;;;;;;;;;5048800;28;20036;-81
2023/09/30 13:05:34;;;;;;;3.17;1.33;;;;;;;;;;5045109;28;20033;-82
2023/09/30 13:08:00;;;;;;;4.57;1.33;;;;;;;;;;5038836;28;20482;-82
2023/09/30 13:10:25;;;;;;;1.55;1.30;;;;;;;;;;5045994;28;20044;-79
2023/09/30 13:12:53;;;;;;;1.88;1.42;;;;;;;;;;5045741;28;20017;-82
2023/09/30 13:15:19;;;;;;;1.60;0.98;;;;;;;;;;5036354;28;20488;-80
2023/09/30 13:17:45;;;;;;;1.67;1.25;;;;;;;;;;5033584;28;20021;-82
2023/09/30 13:20:11;;;;;;;2.97;1.90;;;;;;;;;;5045252;28;20021;-82
2023/09/30 13:22:38;;;;;;;2.35;1.42;;;;;;;;;;5040648;28;20033;-82
2023/09/30 13:25:12;;;;;;;1.83;1.20;;;;;;;;;;5042414;28;20419;-82
2023/09/30 13:27:39;;;;;;;1.83;1.30;;;;;;;;;;5043792;28;20021;-80
2023/09/30 13:30:07;;;;;;;2.45;1.25;;;;;;;;;;5041410;28;20021;-82
2023/09/30 13:32:35;;;;;;;1.90;1.40;;;;;;;;;;5042787;28;20037;-84
2023/09/30 13:35:05;;;;;;;2.03;1.20;;;;;;;;;;5044385;28;20040;-82
2023/09/30 13:37:33;;;;;;;;;;;;;;;;;;5037334;28;20029;-82
2023/09/30 13:39:59;;;;;;;4.63;1.60;;;;;;;;;;5040533;28;19920;-82
2023/09/30 13:42:24;;;;;;;3.38;1.40;;;;;;;;;;5043867;28;20033;-82
2023/09/30 13:44:50;;;;;;;3.58;1.85;;;;;;;;;;5043914;28;20108;-81
2023/09/30 13:47:15;;;;;;;1.83;1.40;;;;;;;;;;5041757;28;20128;-81
2023/09/30 13:49:40;;;;;;;1.60;1.40;;;;;;;;;;5040825;28;20025;-82
2023/09/30 13:52:06;;;;;;;2.28;1.50;;;;;;;;;;5043350;28;20128;-83
2023/09/30 13:54:32;;;;;;;2.03;1.48;;;;;;;;;;5036910;28;20029;-84
2023/09/30 13:57:00;;;;;;;2.15;1.50;;;;;;;;;;5041444;28;20025;-83
2023/09/30 13:59:27;;;;;;;2.10;1.60;;;;;;;;;;5047363;28;20024;-81
2023/09/30 14:01:53;;;;;;;2.03;1.48;;;;;;;;;;5042584;28;20026;-84
2023/09/30 14:04:18;;;;;;;2.30;1.50;;;;;;;;;;5045443;28;20024;-84
2023/09/30 14:06:47;;;;;;;2.72;1.70;;;;;;;;;;5040854;28;20033;-83
2023/09/30 14:09:14;;;;;;;1.67;1.15;;;;;;;;;;5042782;28;20508;-84
2023/09/30 14:11:41;;;;;;;2.25;1.40;;;;;;;;;;5039015;28;20078;-83
2023/09/30 14:14:09;;;;;;;2.40;1.65;;;;;;;;;;5036297;28;20412;-85
2023/09/30 14:16:35;;;;;;;1.67;1.30;;;;;;;;;;5032048;28;20056;-83
2023/09/30 14:19:01;;;;;;;2.88;1.40;;;;;;;;;;5034169;28;20032;-82
2023/09/30 14:21:26;;;;;;;10.95;5.53;;;;;;;;;;5042431;28;20021;-85
2023/09/30 14:23:52;;;;;;;5.40;2.67;;;;;;;;;;5038705;28;20017;-83
2023/09/30 14:26:17;;;;;;;2.55;1.95;;;;;;;;;;5041092;28;20051;-82
2023/09/30 14:28:42;;;;;;;2.75;1.35;;;;;;;;;;5042797;28;20436;-82
2023/09/30 14:31:08;;;;;;;5.38;1.90;;;;;;;;;;5034849;28;20033;-82
2023/09/30 14:33:34;;;;;;;2.22;1.73;;;;;;;;;;5046762;28;20051;-82
2023/09/30 14:35:59;;;;;;;1.90;1.35;;;;;;;;;;5037551;28;20031;-82
2023/09/30 14:38:25;;;;;;;2.33;1.40;;;;;;;;;;5038817;28;20025;-83
2023/09/30 14:40:51;;;;;;;1.58;1.17;;;;;;;;;;5038617;28;20034;-82
2023/09/30 14:43:17;;;;;;;1.90;1.30;;;;;;;;;;5045252;28;20448;-82
2023/09/30 14:45:42;;;;;;;2.03;1.30;;;;;;;;;;5045547;28;20029;-81
2023/09/30 14:48:11;;;;;;;1.95;1.20;;;;;;;;;;5042336;28;20024;-82
2023/09/30 14:50:37;;;;;;;1.67;1.55;;;;;;;;;;5039466;28;20061;-82
2023/09/30 14:53:03;;;;;;;1.67;1.23;;;;;;;;;;5044139;28;20061;-82
2023/09/30 14:55:31;;;;;;;2.58;1.55;;;;;;;;;;5039421;28;20056;-81
2023/09/30 14:57:56;;;;;;;2.88;1.75;;;;;;;;;;5038778;28;20025;-82
2023/09/30 15:00:24;;;;;;;1.60;1.13;;;;;;;;;;5041118;28;20017;-81
2023/09/30 15:02:50;;;;;;;1.77;1.10;;;;;;;;;;5041320;28;20492;-82
2023/09/30 15:05:15;;;;;;;3.63;1.88;;;;;;;;;;5042375;28;20021;-82
2023/09/30 15:07:41;;;;;;;2.67;1.10;;;;;;;;;;5039471;28;20402;-81
2023/09/30 15:10:07;;;;;;;1.27;1.08;;;;;;;;;;5039080;28;20469;-81
2023/09/30 15:12:32;;;;;;;1.58;1.00;;;;;;;;;;5041869;28;20048;-81
2023/09/30 15:14:57;;;;;;;2.35;1.15;;;;;;;;;;5036761;28;20032;-80
2023/09/30 15:17:23;;;;;;;2.47;1.27;;;;;;;;;;5045948;28;20029;-82
2023/09/30 15:19:48;;;;;;;1.48;1.15;;;;;;;;;;5039324;28;20024;-82
2023/09/30 15:22:14;;;;;;;2.40;2.15;;;;;;;;;;5037430;28;20033;-84
2023/09/30 15:24:39;;;;;;;2.22;1.30;;;;;;;;;;5036339;28;20428;-79
2023/09/30 15:27:05;;;;;;;1.75;1.33;;;;;;;;;;5036441;28;20060;-82
2023/09/30 15:29:30;;;;;;;2.58;1.25;;;;;;;;;;5040065;28;20473;-81
2023/09/30 15:31:55;;;;;;;1.52;1.20;;;;;;;;;;5040827;28;20037;-83
2023/09/30 15:34:22;;;;;;;2.47;1.40;;;;;;;;;;5041147;28;20118;-83
2023/09/30 15:36:47;;;;;;;1.75;1.23;;;;;;;;;;5035562;28;20477;-83
2023/09/30 15:39:13;;;;;;;1.98;1.52;;;;;;;;;;5035183;28;20100;-83
2023/09/30 15:41:38;;;;;;;2.63;1.55;;;;;;;;;;5039926;28;20112;-82
2023/09/30 15:44:05;;;;;;;1.80;1.20;;;;;;;;;;5036975;28;20029;-80
2023/09/30 15:46:31;;;;;;;1.65;0.98;;;;;;;;;;5041788;28;20029;-82
2023/09/30 15:48:56;;;;;;;1.30;1.13;;;;;;;;;;5035411;28;20033;-81
2023/09/30 15:51:22;;;;;;;1.27;1.10;;;;;;;;;;5041665;28;20079;-83
2023/09/30 15:53:47;;;;;;;0.77;0.75;;;;;;;;;;5039076;28;20075;-80
2023/09/30 15:56:12;;;;;;;2.92;1.60;;;;;;;;;;5038045;28;20033;-82
2023/09/30 15:58:38;;;;;;;2.22;1.02;;;;;;;;;;5040901;28;20410;-83
2023/09/30 16:01:03;;;;;;;2.65;1.25;;;;;;;;;;5036981;28;20075;-81
2023/09/30 16:03:29;;;;;;;1.88;1.40;;;;;;;;;;5037888;28;20026;-81
2023/09/30 16:05:55;;;;;;;2.00;1.02;;;;;;;;;;5045323;28;20021;-82
2023/09/30 16:08:21;;;;;;;1.27;1.17;;;;;;;;;;5037832;28;20025;-82
2023/09/30 16:10:46;;;;;;;1.67;1.13;;;;;;;;;;5033170;28;20029;-81
2023/09/30 16:13:11;;;;;;;2.22;1.70;;;;;;;;;;5026083;28;20033;-80
2023/09/30 16:15:42;;;;;;;1.33;0.88;;;;;;;;;;5031220;28;20068;-81
2023/09/30 16:18:08;;;;;;;2.50;1.48;;;;;;;;;;5028511;28;20060;-84
2023/09/30 16:20:34;;;;;;;2.15;1.60;;;;;;;;;;5029593;28;20028;-82
2023/09/30 16:23:00;;;;;;;1.67;1.45;;;;;;;;;;5028528;28;20029;-82
2023/09/30 16:25:25;;;;;;;2.03;1.27;;;;;;;;;;5027535;28;20045;-82
2023/09/30 16:27:52;;;;;;;1.52;1.00;;;;;;;;;;5027315;28;20053;-80
2023/09/30 16:30:19;;;;;;;2.15;1.58;;;;;;;;;;5026618;28;20029;-82
2023/09/30 16:32:44;;;;;;;2.30;1.42;;;;;;;;;;5030938;28;20025;-81
